Time;durP1;ratioP1;P1;durP2;ratioP2;P2;SDS_P1;SDS_P2;PMS_P1;PMS_P2;Temp;Humidity;BMP_temperature;BMP_pressure;BME280_temperature;BME280_humidity;BME280_pressure;Samples;Min_cycle;Max_cycle;Signal;HPM_P1;HPM_P2
2022/12/24 00:01:32;;;;;;;24.20;4.63;;;10.60;99.90;;;;;;5080680;28;20461;-84
2022/12/24 00:03:59;;;;;;;29.90;5.70;;;10.60;99.90;;;;;;5081257;28;20466;-84
2022/12/24 00:06:26;;;;;;;18.70;4.23;;;10.50;99.90;;;;;;5080804;28;20472;-83
2022/12/24 00:08:53;;;;;;;19.07;4.33;;;10.70;99.90;;;;;;5080501;28;20567;-85
2022/12/24 00:11:21;;;;;;;24.87;5.03;;;10.50;99.90;;;;;;5080977;28;20450;-84
2022/12/24 00:13:48;;;;;;;24.17;6.73;;;10.40;99.90;;;;;;5081381;28;20473;-85
2022/12/24 00:16:16;;;;;;;29.87;4.60;;;10.40;99.90;;;;;;5081544;28;20456;-84
2022/12/24 00:18:43;;;;;;;20.93;5.67;;;10.50;99.90;;;;;;5079772;28;20475;-84
2022/12/24 00:21:10;;;;;;;28.80;6.03;;;10.30;99.90;;;;;;5079669;28;20447;-84
2022/12/24 00:23:36;;;;;;;24.47;5.90;;;10.30;99.90;;;;;;5079789;28;20476;-84
2022/12/24 00:26:03;;;;;;;23.03;5.73;;;10.30;99.90;;;;;;5081166;28;20541;-86
2022/12/24 00:28:30;;;;;;;30.17;7.73;;;10.30;99.90;;;;;;5080340;28;20978;-84
2022/12/24 00:30:57;;;;;;;14.90;6.33;;;10.30;99.90;;;;;;5080486;28;20896;-84
2022/12/24 00:33:25;;;;;;;19.73;7.50;;;10.40;99.90;;;;;;5080806;28;20557;-84
2022/12/24 00:35:53;;;;;;;16.13;8.20;;;10.60;99.90;;;;;;5060285;28;20870;-85
2022/12/24 00:38:19;;;;;;;21.23;17.73;;;10.50;99.90;;;;;;5058954;28;20843;-83
2022/12/24 00:40:46;;;;;;;76.10;70.73;;;10.30;99.90;;;;;;5076551;28;20455;-84
2022/12/24 00:43:13;;;;;;;156.77;149.10;;;10.10;99.90;;;;;;5077754;28;21074;-83
2022/12/24 00:45:40;;;;;;;212.10;204.07;;;10.10;99.90;;;;;;5077117;28;20458;-82
2022/12/24 00:48:06;;;;;;;205.53;196.87;;;10.10;99.90;;;;;;5077953;28;20474;-83
2022/12/24 00:50:35;;;;;;;301.53;290.87;;;10.00;99.90;;;;;;5077343;28;20473;-83
2022/12/24 00:53:01;;;;;;;253.23;243.57;;;10.10;99.90;;;;;;5077208;28;20936;-83
2022/12/24 00:55:28;;;;;;;179.07;172.23;;;10.20;99.90;;;;;;5077828;28;20458;-83
2022/12/24 00:57:55;;;;;;;245.17;235.37;;;10.30;99.90;;;;;;5077362;28;20513;-83
2022/12/24 01:00:22;;;;;;;233.97;225.27;;;10.30;99.90;;;;;;5077257;28;20457;-83
2022/12/24 01:02:48;;;;;;;298.27;286.93;;;10.30;99.90;;;;;;5077743;28;20470;-83
2022/12/24 01:05:19;;;;;;;287.07;275.70;;;10.20;99.90;;;;;;5077419;28;20457;-82
2022/12/24 01:07:47;;;;;;;305.87;294.37;;;10.20;99.90;;;;;;5077700;28;20485;-83
2022/12/24 01:10:16;;;;;;;337.03;323.63;;;10.20;99.90;;;;;;5077046;28;20516;-83
2022/12/24 01:12:43;;;;;;;338.70;326.77;;;10.10;99.90;;;;;;5077240;28;20481;-83
2022/12/24 01:15:11;;;;;;;254.17;245.30;;;10.10;99.90;;;;;;5077307;28;20461;-84
2022/12/24 01:17:38;;;;;;;318.27;306.27;;;10.10;99.90;;;;;;5076860;28;20453;-83
2022/12/24 01:20:07;;;;;;;342.87;330.57;;;10.00;99.90;;;;;;5077315;28;20461;-83
2022/12/24 01:22:34;;;;;;;268.97;259.87;;;9.90;99.90;;;;;;5077451;28;20450;-83
2022/12/24 01:25:03;;;;;;;283.67;273.33;;;10.00;99.90;;;;;;5077239;28;20467;-83
2022/12/24 01:27:29;;;;;;;268.03;258.03;;;9.90;99.90;;;;;;5077249;28;20459;-84
2022/12/24 01:29:56;;;;;;;257.63;247.87;;;9.80;99.90;;;;;;5077610;28;20494;-83
2022/12/24 01:32:23;;;;;;;213.60;205.10;;;9.80;99.90;;;;;;5076984;28;20451;-83
2022/12/24 01:34:50;;;;;;;203.40;195.40;;;10.00;99.90;;;;;;5077441;28;20457;-83
2022/12/24 01:37:16;;;;;;;181.07;173.57;;;10.10;99.90;;;;;;5076970;28;20455;-82
2022/12/24 01:39:43;;;;;;;165.63;158.97;;;10.20;99.90;;;;;;5075549;28;20480;-83
2022/12/24 01:45:42;;;;;;;161.80;154.30;;;10.00;99.90;;;;;;5051673;28;20455;-84
2022/12/24 01:48:19;;;;;;;145.60;139.37;;;10.10;99.90;;;;;;5062304;28;20438;-83
2022/12/24 01:50:47;;;;;;;142.10;136.40;;;10.10;99.90;;;;;;5077561;28;20825;-84
2022/12/24 01:53:15;;;;;;;147.37;141.10;;;10.10;99.90;;;;;;5076665;28;20489;-82
2022/12/24 01:55:43;;;;;;;142.13;135.00;;;10.10;99.90;;;;;;5076886;28;20515;-83
2022/12/24 01:58:15;;;;;;;139.70;133.13;;;10.00;99.90;;;;;;5080336;28;20489;-83
2022/12/24 02:00:42;;;;;;;147.50;139.80;;;9.90;99.90;;;;;;5079693;28;20450;-83
2022/12/24 02:03:09;;;;;;;149.67;143.40;;;9.90;99.90;;;;;;5080819;28;20476;-83
2022/12/24 02:05:45;;;;;;;145.27;139.47;;;10.00;99.90;;;;;;5080855;28;20461;-83
2022/12/24 02:08:13;;;;;;;158.50;151.70;;;9.90;99.90;;;;;;5080569;28;20452;-82
2022/12/24 02:10:39;;;;;;;149.23;142.57;;;9.90;99.90;;;;;;5080417;28;20446;-83
2022/12/24 02:13:06;;;;;;;150.00;142.97;;;9.90;99.90;;;;;;5080170;28;20462;-83
2022/12/24 02:15:45;;;;;;;154.63;148.27;;;9.90;99.90;;;;;;5080927;28;20458;-84
2022/12/24 02:18:19;;;;;;;139.47;133.47;;;9.80;99.90;;;;;;5080067;28;20462;-83
2022/12/24 02:21:23;;;;;;;142.53;136.33;;;9.90;99.90;;;;;;5080335;28;20956;-83
2022/12/24 02:24:16;;;;;;;146.07;139.90;;;9.90;99.90;;;;;;5080856;28;20477;-84
2022/12/24 02:27:02;;;;;;;161.97;154.47;;;9.80;99.90;;;;;;5080734;28;20446;-83
2022/12/24 02:29:54;;;;;;;160.03;153.30;;;9.80;99.90;;;;;;5078916;28;20449;-83
2022/12/24 02:32:24;;;;;;;139.10;131.47;;;9.90;99.90;;;;;;5079926;28;20445;-82
2022/12/24 02:34:56;;;;;;;103.47;98.53;;;9.90;99.90;;;;;;5079118;28;20447;-83
2022/12/24 02:37:29;;;;;;;91.80;85.90;;;9.80;99.90;;;;;;5080613;28;20451;-84
2022/12/24 02:39:58;;;;;;;87.27;83.00;;;9.90;99.90;;;;;;5080524;28;20481;-85
2022/12/24 02:42:29;;;;;;;89.33;85.50;;;9.90;99.90;;;;;;5079800;28;20450;-83
2022/12/24 02:45:02;;;;;;;94.07;88.77;;;10.10;99.90;;;;;;5079385;28;20831;-83
2022/12/24 02:47:31;;;;;;;87.43;83.33;;;10.10;99.90;;;;;;5079537;28;20442;-85
2022/12/24 02:50:00;;;;;;;77.70;72.03;;;10.10;99.90;;;;;;5079515;28;20451;-84
2022/12/24 02:52:32;;;;;;;62.73;58.30;;;10.40;99.90;;;;;;5079690;28;20465;-83
2022/12/24 02:55:02;;;;;;;65.10;60.70;;;10.30;99.90;;;;;;5080083;28;20455;-83
2022/12/24 02:57:40;;;;;;;50.93;47.60;;;10.40;99.90;;;;;;5080598;28;20435;-82
2022/12/24 03:00:10;;;;;;;53.37;49.50;;;10.50;99.90;;;;;;5080886;28;20494;-83
2022/12/24 03:02:52;;;;;;;52.23;48.43;;;10.50;99.90;;;;;;5079876;28;21182;-83
2022/12/24 03:05:26;;;;;;;51.40;48.03;;;10.40;99.90;;;;;;5078472;28;20456;-82
2022/12/24 03:08:02;;;;;;;55.50;51.90;;;10.40;99.90;;;;;;5079100;28;20461;-83
2022/12/24 03:10:36;;;;;;;59.40;55.43;;;10.40;99.90;;;;;;5079273;28;20970;-83
2022/12/24 03:13:07;;;;;;;56.70;52.80;;;10.50;99.90;;;;;;5080445;28;21006;-83
2022/12/24 03:15:39;;;;;;;58.57;55.20;;;10.40;99.90;;;;;;5081013;28;20450;-83
2022/12/24 03:18:09;;;;;;;58.63;55.83;;;10.50;99.90;;;;;;5079789;28;20464;-84
2022/12/24 03:20:39;;;;;;;72.80;68.50;;;10.50;99.90;;;;;;5078716;28;20472;-83
2022/12/24 03:23:06;;;;;;;112.13;107.73;;;10.50;99.90;;;;;;5079056;28;20489;-83
2022/12/24 03:25:34;;;;;;;177.70;170.03;;;10.40;99.90;;;;;;5079747;28;20458;-84
2022/12/24 03:28:04;;;;;;;240.07;231.63;;;10.30;99.90;;;;;;5079635;28;20457;-84
2022/12/24 03:30:32;;;;;;;265.23;256.13;;;10.20;99.90;;;;;;5078699;28;20447;-84
2022/12/24 03:33:00;;;;;;;244.70;236.10;;;10.20;99.90;;;;;;5079379;28;20481;-83
2022/12/24 03:35:27;;;;;;;250.03;240.57;;;10.20;99.90;;;;;;5078385;28;20521;-83
2022/12/24 03:37:53;;;;;;;221.10;213.10;;;10.20;99.90;;;;;;5079171;28;20465;-84
2022/12/24 03:40:20;;;;;;;257.10;246.23;;;10.20;99.90;;;;;;5078371;28;20486;-83
2022/12/24 03:42:47;;;;;;;271.17;261.17;;;10.10;99.90;;;;;;5078756;28;20470;-83
2022/12/24 03:45:13;;;;;;;237.37;229.00;;;10.10;99.90;;;;;;5078238;28;20447;-83
2022/12/24 03:47:40;;;;;;;208.50;200.80;;;10.00;99.90;;;;;;5078286;28;20454;-84
2022/12/24 03:50:09;;;;;;;197.43;189.57;;;9.90;99.90;;;;;;5078089;28;20469;-83
2022/12/24 03:52:35;;;;;;;195.37;186.97;;;9.90;99.90;;;;;;5078561;28;20450;-83
2022/12/24 03:55:03;;;;;;;179.07;172.57;;;9.90;99.90;;;;;;5078429;28;20453;-84
2022/12/24 03:57:29;;;;;;;155.67;150.17;;;9.90;99.90;;;;;;5078114;28;20461;-83
2022/12/24 03:59:56;;;;;;;182.57;175.73;;;9.90;99.90;;;;;;5078108;28;20699;-83
2022/12/24 04:02:23;;;;;;;146.67;140.90;;;9.90;99.90;;;;;;5077625;28;20458;-83
2022/12/24 04:04:50;;;;;;;103.40;99.53;;;9.90;99.90;;;;;;5078331;28;20443;-83
2022/12/24 04:07:18;;;;;;;81.63;77.33;;;10.10;99.90;;;;;;5078922;28;20837;-83
2022/12/24 04:09:44;;;;;;;67.10;63.00;;;10.10;99.90;;;;;;5077563;28;20447;-84
2022/12/24 04:12:11;;;;;;;58.37;55.20;;;10.20;99.90;;;;;;5077600;28;20461;-85
2022/12/24 04:14:38;;;;;;;52.80;50.10;;;10.30;99.90;;;;;;5074123;28;20852;-83
2022/12/24 04:17:04;;;;;;;51.63;49.03;;;10.30;99.90;;;;;;5073039;28;20442;-83
2022/12/24 04:19:31;;;;;;;49.70;47.43;;;10.30;99.90;;;;;;5077222;28;20470;-84
2022/12/24 04:21:58;;;;;;;43.60;40.40;;;10.20;99.90;;;;;;5078075;28;20454;-83
2022/12/24 04:24:26;;;;;;;46.60;43.60;;;10.20;99.90;;;;;;5077195;28;20470;-84
2022/12/24 04:26:53;;;;;;;51.40;48.73;;;10.20;99.90;;;;;;5080181;28;20455;-84
2022/12/24 04:29:19;;;;;;;48.07;45.50;;;10.20;99.90;;;;;;5080954;28;20830;-83
2022/12/24 04:31:48;;;;;;;51.00;48.60;;;10.20;99.90;;;;;;5077783;28;20457;-85
2022/12/24 04:34:15;;;;;;;55.50;52.50;;;10.30;99.90;;;;;;5078762;28;20986;-84
2022/12/24 04:36:41;;;;;;;56.40;53.80;;;10.20;99.90;;;;;;5079388;28;20461;-83
2022/12/24 04:39:08;;;;;;;54.10;50.80;;;10.30;99.90;;;;;;5079791;28;20496;-84
2022/12/24 04:41:36;;;;;;;59.93;56.17;;;10.20;99.90;;;;;;5078112;28;20455;-84
2022/12/24 04:44:03;;;;;;;82.33;78.47;;;10.10;99.90;;;;;;5078237;28;20473;-85
2022/12/24 04:46:30;;;;;;;108.53;104.33;;;10.00;99.90;;;;;;5074863;28;20452;-84
2022/12/24 04:48:58;;;;;;;138.97;133.47;;;9.90;99.90;;;;;;5078103;28;20464;-84
2022/12/24 04:51:25;;;;;;;156.73;150.63;;;9.90;99.90;;;;;;5077877;28;20447;-84
2022/12/24 04:53:53;;;;;;;183.90;176.53;;;9.90;99.90;;;;;;5077632;28;20561;-84
2022/12/24 04:56:22;;;;;;;202.27;193.83;;;9.80;99.90;;;;;;5078461;28;20446;-84
2022/12/24 04:58:51;;;;;;;221.33;213.63;;;9.70;99.90;;;;;;5079587;28;20450;-86
2022/12/24 05:01:20;;;;;;;249.37;240.03;;;9.80;99.90;;;;;;5080462;28;20450;-84
2022/12/24 05:03:47;;;;;;;227.07;217.63;;;9.90;99.90;;;;;;5077080;28;20686;-84
2022/12/24 05:06:17;;;;;;;247.27;238.37;;;9.90;99.90;;;;;;5076642;28;20455;-82
2022/12/24 05:08:44;;;;;;;237.47;228.73;;;9.90;99.90;;;;;;5076625;28;20450;-83
2022/12/24 05:11:13;;;;;;;237.67;229.13;;;9.80;99.90;;;;;;5076553;28;20457;-83
2022/12/24 05:13:43;;;;;;;241.57;233.07;;;9.80;99.90;;;;;;5078067;28;20466;-83
2022/12/24 05:16:13;;;;;;;300.33;289.43;;;9.60;99.90;;;;;;5077073;28;20458;-82
2022/12/24 05:18:39;;;;;;;316.53;304.97;;;9.70;99.90;;;;;;5077619;28;20447;-84
2022/12/24 05:21:09;;;;;;;322.40;310.70;;;9.60;99.90;;;;;;5076701;28;20478;-83
2022/12/24 05:26:28;;;;;;;340.07;327.17;;;9.60;99.90;;;;;;5077206;28;20825;-83
2022/12/24 05:28:58;;;;;;;356.20;342.73;;;9.70;99.90;;;;;;5076996;28;20446;-83
2022/12/24 05:31:44;;;;;;;345.50;331.40;;;9.80;99.90;;;;;;5081457;28;20450;-84
2022/12/24 05:34:41;;;;;;;330.57;318.23;;;9.80;99.90;;;;;;5083581;28;20470;-83
2022/12/24 05:37:14;;;;;;;314.53;302.37;;;9.90;99.90;;;;;;5074745;28;20998;-83
2022/12/24 05:54:39;;;;;;;331.83;319.13;;;9.90;99.90;;;;;;4997940;22;20843;-83
2022/12/24 06:00:36;;;;;;;289.67;278.07;;;9.90;99.90;;;;;;4930433;28;20740;-84
2022/12/24 06:07:13;;;;;;;263.87;252.97;;;9.90;99.90;;;;;;4934371;28;20499;-82
2022/12/24 06:09:40;;;;;;;215.87;207.77;;;10.00;99.90;;;;;;4911696;29;20492;-84
2022/12/24 06:15:36;;;;;;;163.67;156.13;;;10.20;99.90;;;;;;4909347;28;20444;-83
2022/12/24 06:18:02;;;;;;;167.10;159.00;;;10.10;99.90;;;;;;5064319;28;20454;-85
2022/12/24 06:20:29;;;;;;;184.23;175.87;;;10.00;99.90;;;;;;5081386;28;20478;-84
2022/12/24 06:22:56;;;;;;;225.60;217.23;;;9.90;99.90;;;;;;5065249;28;20467;-85
2022/12/24 06:25:23;;;;;;;254.37;243.87;;;9.80;99.90;;;;;;5067804;28;20453;-85
2022/12/24 06:27:49;;;;;;;287.10;273.83;;;9.80;99.90;;;;;;5081208;28;20447;-84
2022/12/24 06:31:01;;;;;;;273.10;261.93;;;9.80;99.90;;;;;;5074776;28;20449;-85
2022/12/24 06:36:52;;;;;;;227.77;218.17;;;9.90;99.90;;;;;;5049338;28;20465;-83
2022/12/24 06:42:58;;;;;;;;;;;;;;;;;;;;;
2022/12/24 06:45:25;;;;;;;127.83;122.20;;;10.20;99.90;;;;;;4948327;29;20456;-85
2022/12/24 06:51:29;;;;;;;86.50;81.37;;;10.20;99.90;;;;;;5054048;28;20435;-86
2022/12/24 06:57:20;;;;;;;55.87;52.10;;;10.30;99.90;;;;;;4989686;28;20454;-85
2022/12/24 07:00:16;;;;;;;35.00;31.50;;;10.30;99.90;;;;;;5085876;28;20477;-84
2022/12/24 07:02:44;;;;;;;39.07;35.60;;;10.40;99.90;;;;;;5071560;28;20463;-84
2022/12/24 07:05:12;;;;;;;27.40;24.60;;;10.50;99.90;;;;;;5079727;28;20451;-84
2022/12/24 07:07:40;;;;;;;26.37;23.50;;;10.50;99.90;;;;;;5067541;28;20452;-85
2022/12/24 07:10:08;;;;;;;26.30;17.90;;;10.50;99.90;;;;;;5075696;28;20443;-84
2022/12/24 07:12:36;;;;;;;27.93;25.03;;;10.40;99.90;;;;;;5077105;28;20455;-84
2022/12/24 07:15:23;;;;;;;27.00;24.90;;;10.30;99.90;;;;;;5085986;28;20535;-84
2022/12/24 07:17:49;;;;;;;32.63;29.47;;;10.40;99.90;;;;;;5084145;28;20457;-85
2022/12/24 07:20:16;;;;;;;31.53;28.30;;;10.30;99.90;;;;;;5084781;28;20474;-82
2022/12/24 07:22:43;;;;;;;30.67;27.17;;;10.30;99.90;;;;;;5087791;28;20864;-84
2022/12/24 07:25:11;;;;;;;32.93;30.13;;;10.10;99.90;;;;;;5081869;28;20456;-84
2022/12/24 07:27:39;;;;;;;35.90;32.97;;;10.10;99.90;;;;;;5066861;28;20458;-84
2022/12/24 07:30:07;;;;;;;39.47;35.70;;;10.00;99.90;;;;;;5074383;28;20454;-85
2022/12/24 07:32:34;;;;;;;43.50;39.50;;;10.00;99.90;;;;;;5088221;28;20450;-85
2022/12/24 07:35:01;;;;;;;48.07;45.10;;;9.90;99.90;;;;;;5077777;28;20462;-84
2022/12/24 07:37:28;;;;;;;66.87;62.27;;;9.90;99.90;;;;;;5064113;28;20455;-83
2022/12/24 07:39:54;;;;;;;80.10;76.10;;;9.80;99.90;;;;;;5067706;28;20471;-84
2022/12/24 07:42:21;;;;;;;95.10;90.00;;;9.70;99.90;;;;;;5073292;28;20443;-84
2022/12/24 07:44:49;;;;;;;117.23;111.40;;;9.50;99.90;;;;;;5084627;28;20970;-84
2022/12/24 07:47:16;;;;;;;146.93;138.97;;;9.60;99.90;;;;;;5074349;28;20485;-84
2022/12/24 07:49:52;;;;;;;154.07;146.80;;;9.50;99.90;;;;;;5063105;28;20461;-83
2022/12/24 07:52:18;;;;;;;164.00;157.20;;;9.50;99.90;;;;;;5060290;28;20461;-85
2022/12/24 07:54:45;;;;;;;192.37;183.87;;;9.40;99.90;;;;;;5059343;28;20485;-84
2022/12/24 07:57:32;;;;;;;203.77;194.37;;;9.50;99.90;;;;;;5068251;28;20479;-81
2022/12/24 08:00:00;;;;;;;206.13;196.67;;;9.60;99.90;;;;;;5081349;28;20466;-85
2022/12/24 08:02:26;;;;;;;185.90;177.50;;;9.70;99.90;;;;;;5079772;28;20446;-85
2022/12/24 08:04:59;;;;;;;166.83;157.53;;;9.70;99.90;;;;;;5081091;28;20446;-84
2022/12/24 08:07:26;;;;;;;147.27;140.33;;;9.80;99.90;;;;;;5079197;28;20445;-84
2022/12/24 08:09:53;;;;;;;130.73;124.83;;;10.00;99.90;;;;;;5079748;28;20455;-84
2022/12/24 08:12:20;;;;;;;116.43;110.50;;;10.00;99.90;;;;;;5073941;28;20720;-85
2022/12/24 08:14:46;;;;;;;106.17;100.67;;;10.00;99.90;;;;;;5064177;28;20451;-84
2022/12/24 08:17:15;;;;;;;90.30;86.03;;;10.00;99.90;;;;;;5062971;28;20453;-84
2022/12/24 08:20:04;;;;;;;83.13;78.00;;;10.10;99.90;;;;;;5061877;28;20459;-84
2022/12/24 08:22:31;;;;;;;74.60;68.70;;;10.10;99.90;;;;;;5082666;28;20479;-85
2022/12/24 08:24:58;;;;;;;67.37;62.43;;;10.20;99.90;;;;;;5079411;28;20823;-84
2022/12/24 08:27:25;;;;;;;61.30;56.77;;;10.30;99.90;;;;;;5075940;28;20470;-84
2022/12/24 08:29:52;;;;;;;48.70;43.77;;;10.30;99.90;;;;;;5081540;28;20449;-84
2022/12/24 08:32:29;;;;;;;47.20;42.70;;;10.30;99.90;;;;;;5081586;28;20450;-84
2022/12/24 08:34:56;;;;;;;44.20;41.60;;;10.30;99.90;;;;;;5065555;28;20453;-84
2022/12/24 08:37:23;;;;;;;44.67;40.60;;;10.30;99.90;;;;;;5080435;28;20461;-85
2022/12/24 08:39:49;;;;;;;43.40;39.60;;;10.30;99.90;;;;;;5065428;28;20448;-85
2022/12/24 08:42:16;;;;;;;38.53;35.43;;;10.40;99.90;;;;;;5063483;28;20451;-84
2022/12/24 08:44:43;;;;;;;33.73;30.83;;;10.40;99.90;;;;;;5078472;28;20473;-84
2022/12/24 08:47:10;;;;;;;39.53;30.60;;;10.40;99.90;;;;;;5083862;28;20458;-84
2022/12/24 08:49:38;;;;;;;29.13;26.40;;;10.40;99.90;;;;;;5070594;28;20451;-84
2022/12/24 08:52:05;;;;;;;30.87;25.50;;;10.40;99.90;;;;;;5076631;28;20496;-84
2022/12/24 08:54:56;;;;;;;27.90;24.00;;;10.40;99.90;;;;;;5080692;28;20587;-84
2022/12/24 08:57:25;;;;;;;38.73;25.73;;;10.40;99.90;;;;;;5071672;28;20469;-84
2022/12/24 09:03:05;;;;;;;35.33;29.23;;;10.40;99.90;;;;;;4952986;28;20482;-85
2022/12/24 09:05:33;;;;;;;34.30;31.10;;;10.40;99.90;;;;;;5019357;28;20487;-84
2022/12/24 09:07:59;;;;;;;36.27;32.97;;;10.40;99.90;;;;;;5076558;28;20450;-84
2022/12/24 09:10:26;;;;;;;34.83;31.33;;;10.50;99.90;;;;;;5080703;28;20461;-84
2022/12/24 09:12:53;;;;;;;32.40;29.70;;;10.50;99.90;;;;;;5083954;28;20470;-84
2022/12/24 09:15:52;;;;;;;29.73;26.73;;;10.50;99.90;;;;;;5082870;28;20451;-84
2022/12/24 09:18:29;;;;;;;38.73;31.37;;;10.50;99.90;;;;;;5077233;28;20474;-84
2022/12/24 09:21:00;;;;;;;34.60;31.63;;;10.50;99.90;;;;;;5079603;28;20478;-84
2022/12/24 09:23:27;;;;;;;34.33;31.10;;;10.50;99.90;;;;;;5082764;28;20476;-84
2022/12/24 09:26:48;;;;;;;31.90;28.80;;;10.60;99.90;;;;;;5080760;28;20459;-84
2022/12/24 09:29:15;;;;;;;33.33;30.23;;;10.60;99.90;;;;;;5013632;28;20490;-86
2022/12/24 09:41:56;;;;;;;59.67;55.30;;;10.40;99.90;;;;;;4941868;29;20472;-84
2022/12/24 09:44:33;;;;;;;57.30;51.60;;;10.60;99.90;;;;;;5122743;22;20486;-84
2022/12/24 09:47:03;;;;;;;46.70;42.37;;;10.70;99.90;;;;;;5063975;28;20831;-84
2022/12/24 09:49:50;;;;;;;39.03;35.40;;;10.70;99.90;;;;;;5062880;28;20880;-84
2022/12/24 09:52:27;;;;;;;36.00;32.30;;;10.70;99.90;;;;;;5065539;28;20451;-84
2022/12/24 09:55:01;;;;;;;38.60;25.67;;;10.80;99.90;;;;;;5043293;28;20455;-84
2022/12/24 09:57:34;;;;;;;34.37;25.93;;;10.80;99.90;;;;;;5043393;28;20471;-84
2022/12/24 10:00:01;;;;;;;28.23;19.83;;;10.90;99.90;;;;;;5040951;28;20571;-84
2022/12/24 10:02:28;;;;;;;35.67;18.33;;;10.90;99.90;;;;;;5041699;28;20483;-85
2022/12/24 10:04:55;;;;;;;25.20;14.77;;;11.00;99.90;;;;;;5041403;28;20452;-83
2022/12/24 10:07:34;;;;;;;18.63;13.33;;;11.10;99.90;;;;;;5041251;28;20456;-84
2022/12/24 10:10:19;;;;;;;20.33;12.40;;;11.20;99.90;;;;;;5039133;28;20456;-84
2022/12/24 10:22:42;;;;;;;34.90;10.07;;;11.40;99.90;;;;;;4937431;29;20486;-85
2022/12/24 10:25:16;;;;;;;23.00;10.27;;;11.40;99.90;;;;;;4986320;28;20459;-84
2022/12/24 10:27:43;;;;;;;31.27;9.40;;;11.40;99.90;;;;;;4982815;28;20463;-84
2022/12/24 10:30:18;;;;;;;26.57;10.50;;;11.40;99.90;;;;;;5023396;28;20456;-82
2022/12/24 10:32:47;;;;;;;16.00;7.20;;;11.30;99.90;;;;;;5042903;28;20472;-84
2022/12/24 10:35:22;;;;;;;24.63;8.23;;;11.20;99.90;;;;;;5044298;28;20448;-85
2022/12/24 10:37:51;;;;;;;25.93;8.43;;;11.20;99.90;;;;;;5042902;28;20456;-84
2022/12/24 10:43:59;;;;;;;23.60;9.60;;;11.30;99.90;;;;;;4966152;22;20479;-85
2022/12/24 10:46:32;;;;;;;23.83;8.10;;;11.40;99.90;;;;;;5066518;28;20455;-84
2022/12/24 10:49:02;;;;;;;29.00;8.20;;;11.40;99.90;;;;;;5065951;28;20455;-85
2022/12/24 10:51:44;;;;;;;21.40;7.27;;;11.40;99.90;;;;;;5066421;28;20474;-84
2022/12/24 10:54:14;;;;;;;22.47;8.27;;;11.30;99.90;;;;;;5067236;28;20478;-85
2022/12/24 10:56:42;;;;;;;24.83;5.63;;;11.40;99.90;;;;;;5068822;28;20456;-84
2022/12/24 10:59:23;;;;;;;12.37;6.20;;;11.30;99.90;;;;;;5068821;28;20459;-85
2022/12/24 11:01:52;;;;;;;26.63;6.80;;;11.40;99.90;;;;;;5067695;28;20482;-85
2022/12/24 11:04:21;;;;;;;20.07;6.53;;;11.40;99.90;;;;;;5066577;28;20539;-83
2022/12/24 11:06:59;;;;;;;20.60;5.50;;;11.60;99.90;;;;;;5061782;28;20463;-84
2022/12/24 11:09:29;;;;;;;27.70;6.80;;;11.70;99.90;;;;;;5064986;28;20466;-84
2022/12/24 11:11:56;;;;;;;34.70;7.70;;;11.80;99.90;;;;;;5065542;28;20443;-84
2022/12/24 11:14:24;;;;;;;29.17;5.30;;;11.80;99.90;;;;;;5065914;28;20471;-84
2022/12/24 11:16:54;;;;;;;24.77;5.10;;;11.90;99.90;;;;;;5065197;28;20460;-85
2022/12/24 11:19:29;;;;;;;25.47;5.57;;;11.90;99.90;;;;;;5067577;28;20490;-84
2022/12/24 11:22:01;;;;;;;25.67;5.53;;;12.10;99.90;;;;;;5063900;28;20486;-84
2022/12/24 11:24:31;;;;;;;30.07;5.30;;;12.30;99.90;;;;;;5067092;28;20471;-84
2022/12/24 11:27:23;;;;;;;18.37;5.00;;;12.50;99.90;;;;;;5065531;28;20459;-84
2022/12/24 11:29:50;;;;;;;22.23;4.90;;;12.60;99.90;;;;;;5064068;28;20455;-85
2022/12/24 11:32:20;;;;;;;27.20;4.63;;;12.40;99.90;;;;;;5064991;28;20455;-84
2022/12/24 11:34:47;;;;;;;23.33;4.67;;;12.40;99.90;;;;;;5065574;28;20447;-84
2022/12/24 11:37:18;;;;;;;27.77;6.53;;;12.40;99.90;;;;;;5065060;28;21452;-85
2022/12/24 11:39:49;;;;;;;26.27;4.67;;;12.50;99.90;;;;;;5064328;28;20463;-85
2022/12/24 11:42:34;;;;;;;23.57;4.40;;;12.50;99.90;;;;;;5065233;28;20475;-85
2022/12/24 11:45:28;;;;;;;21.27;4.60;;;12.50;99.90;;;;;;5066851;28;20458;-84
2022/12/24 11:48:24;;;;;;;16.70;3.87;;;12.80;99.90;;;;;;5044353;28;20461;-83
2022/12/24 11:50:56;;;;;;;19.77;4.67;;;12.80;99.90;;;;;;5065377;28;20455;-86
2022/12/24 11:53:51;;;;;;;28.73;4.87;;;12.90;99.90;;;;;;5066568;28;20474;-85
2022/12/24 12:10:26;;;;;;;29.23;4.90;;;12.50;99.90;;;;;;5014030;28;20455;-84
2022/12/24 12:17:09;;;;;;;;;;;;;;;;;;;;;
2022/12/24 12:19:41;;;;;;;21.57;3.77;;;12.50;99.90;;;;;;4935056;29;20452;-85
2022/12/24 12:32:06;;;;;;;19.80;2.93;;;13.20;99.90;;;;;;4792317;30;20530;-84
2022/12/24 12:34:39;;;;;;;18.50;3.50;;;13.40;99.90;;;;;;4960327;28;20474;-84
2022/12/24 12:37:10;;;;;;;11.23;3.50;;;13.30;99.90;;;;;;5051745;28;20455;-85
2022/12/24 12:39:37;;;;;;;21.90;4.10;;;13.30;99.90;;;;;;5067348;28;20475;-85
2022/12/24 12:42:11;;;;;;;18.13;4.20;;;13.20;99.90;;;;;;5065730;28;20468;-85
2022/12/24 12:44:58;;;;;;;24.23;4.10;;;13.20;99.90;;;;;;5066311;28;20478;-84
2022/12/24 12:47:45;;;;;;;10.10;2.90;;;13.00;99.90;;;;;;5066215;28;20503;-84
2022/12/24 12:50:18;;;;;;;18.20;3.93;;;12.60;99.90;;;;;;5066350;28;20982;-84
2022/12/24 12:52:59;;;;;;;18.00;4.30;;;12.40;99.90;;;;;;5065573;28;20467;-85
2022/12/24 12:55:40;;;;;;;14.33;4.10;;;12.30;99.90;;;;;;5067461;28;20455;-84
2022/12/24 12:58:13;;;;;;;16.00;3.60;;;12.20;99.90;;;;;;5066535;28;20451;-84
2022/12/24 13:00:44;;;;;;;20.00;5.10;;;12.30;99.90;;;;;;5066306;28;20450;-84
2022/12/24 13:03:46;;;;;;;18.93;4.03;;;12.60;99.90;;;;;;5066751;28;20483;-84
2022/12/24 13:06:38;;;;;;;18.43;3.53;;;12.20;99.90;;;;;;5016561;28;20452;-84
2022/12/24 13:09:27;;;;;;;22.17;4.80;;;12.10;99.90;;;;;;5047183;28;20460;-84
2022/12/24 13:12:07;;;;;;;20.90;3.20;;;12.10;99.90;;;;;;5062988;28;20527;-84
2022/12/24 13:14:55;;;;;;;10.90;3.80;;;11.90;99.90;;;;;;5064448;28;20477;-84
2022/12/24 13:17:54;;;;;;;17.80;4.03;;;11.70;99.90;;;;;;5065620;28;20906;-84
2022/12/24 13:20:26;;;;;;;18.80;3.90;;;11.80;99.90;;;;;;5057489;28;20455;-84
2022/12/24 13:22:58;;;;;;;19.73;3.67;;;12.20;99.90;;;;;;5065668;28;20475;-84
2022/12/24 13:25:31;;;;;;;20.00;3.77;;;12.50;99.90;;;;;;5048329;28;20530;-84
2022/12/24 13:28:15;;;;;;;18.03;5.27;;;12.60;99.90;;;;;;5065134;28;20447;-85
2022/12/24 13:30:42;;;;;;;31.73;5.10;;;12.70;99.90;;;;;;5061425;28;20454;-84
2022/12/24 13:33:11;;;;;;;22.53;4.57;;;12.80;99.90;;;;;;5064964;28;20479;-84
2022/12/24 13:35:54;;;;;;;14.30;3.20;;;12.90;99.90;;;;;;5065069;28;20452;-84
2022/12/24 13:38:44;;;;;;;23.07;4.10;;;12.80;99.90;;;;;;5065355;28;20447;-85
2022/12/24 13:41:48;;;;;;;20.77;4.37;;;12.30;99.90;;;;;;5065568;28;20978;-85
2022/12/24 13:44:21;;;;;;;23.57;5.10;;;12.00;99.90;;;;;;5051680;28;20534;-84
2022/12/24 13:46:56;;;;;;;26.33;5.63;;;11.90;99.90;;;;;;5064084;28;20895;-84
2022/12/24 13:49:29;;;;;;;18.77;3.63;;;11.80;99.90;;;;;;5063233;28;20447;-84
2022/12/24 13:52:28;;;;;;;19.60;3.60;;;11.80;99.90;;;;;;5067223;28;20479;-84
2022/12/24 13:55:16;;;;;;;15.90;5.63;;;11.80;99.90;;;;;;5014895;28;20456;-84
2022/12/24 13:57:56;;;;;;;20.27;4.80;;;11.90;99.90;;;;;;5049593;28;21119;-85
2022/12/24 14:00:38;;;;;;;22.77;4.50;;;12.00;99.90;;;;;;5069385;28;20447;-84
2022/12/24 14:03:18;;;;;;;27.60;5.20;;;11.90;99.90;;;;;;5068437;28;20479;-84
2022/12/24 14:05:47;;;;;;;27.97;5.03;;;11.80;99.90;;;;;;5068628;28;20940;-84
2022/12/24 14:08:17;;;;;;;18.43;3.70;;;11.70;99.90;;;;;;5068065;28;20457;-85
2022/12/24 14:10:58;;;;;;;15.80;3.60;;;11.70;99.90;;;;;;5068507;28;21195;-84
2022/12/24 14:13:51;;;;;;;25.53;3.87;;;11.60;99.90;;;;;;5067952;28;20463;-84
2022/12/24 14:16:19;;;;;;;15.60;3.70;;;11.50;99.90;;;;;;5064981;28;20447;-84
2022/12/24 14:18:49;;;;;;;24.70;3.90;;;11.40;99.90;;;;;;5069695;28;20890;-84
2022/12/24 14:21:21;;;;;;;22.57;4.50;;;11.30;99.90;;;;;;5068978;28;20447;-84
2022/12/24 14:23:53;;;;;;;28.73;3.80;;;11.20;99.90;;;;;;5069721;28;20478;-84
2022/12/24 14:26:24;;;;;;;22.83;4.20;;;11.20;99.90;;;;;;5068658;28;20477;-84
2022/12/24 14:28:55;;;;;;;15.40;4.20;;;11.10;99.90;;;;;;5069856;28;20466;-84
2022/12/24 14:31:22;;;;;;;24.93;3.70;;;11.10;99.90;;;;;;5068071;28;20457;-84
2022/12/24 14:33:49;;;;;;;25.93;4.43;;;11.00;99.90;;;;;;5068742;28;20471;-84